Time;durP1;ratioP1;P1;durP2;ratioP2;P2;SDS_P1;SDS_P2;PMS_P1;PMS_P2;Temp;Humidity;BMP_temperature;BMP_pressure;BME280_temperature;BME280_humidity;BME280_pressure;Samples;Min_cycle;Max_cycle;Signal;HPM_P1;HPM_P2
2021/07/23 00:00:54;;;;;;;15.07;8.73;;;;;;;14.87;75.54;102241.94;4949050;28;20027;-49
2021/07/23 00:03:20;;;;;;;16.05;8.90;;;;;;;14.83;75.50;102245.34;4947510;28;20041;-52
2021/07/23 00:05:46;;;;;;;19.13;10.30;;;;;;;14.80;75.94;102245.31;4961563;28;20564;-53
2021/07/23 00:08:11;;;;;;;19.10;9.55;;;;;;;14.78;75.97;102240.88;4951192;28;20437;-49
2021/07/23 00:10:36;;;;;;;18.38;9.55;;;;;;;14.75;76.15;102238.22;4948875;28;20153;-48
2021/07/23 00:13:02;;;;;;;18.45;9.77;;;;;;;14.74;76.23;102237.34;4951856;28;20042;-55
2021/07/23 00:15:27;;;;;;;21.35;10.43;;;;;;;14.74;76.17;102234.72;4944104;28;20033;-49
2021/07/23 00:17:53;;;;;;;17.52;9.60;;;;;;;14.72;76.28;102232.91;4946065;28;20050;-54
2021/07/23 00:20:18;;;;;;;15.95;8.80;;;;;;;14.68;76.25;102234.59;4951146;28;20466;-50
2021/07/23 00:22:44;;;;;;;18.15;9.52;;;;;;;14.65;76.32;102237.16;4950904;28;20149;-48
2021/07/23 00:25:10;;;;;;;18.63;10.10;;;;;;;14.60;76.61;102231.81;4946454;28;20190;-51
2021/07/23 00:27:35;;;;;;;22.33;9.70;;;;;;;14.55;76.87;102235.22;4948493;28;20120;-49
2021/07/23 00:30:00;;;;;;;16.40;9.10;;;;;;;14.51;76.84;102226.41;4946725;28;20031;-50
2021/07/23 00:32:26;;;;;;;19.77;10.10;;;;;;;14.51;77.14;102233.41;4953081;28;20022;-51
2021/07/23 00:34:51;;;;;;;14.07;8.57;;;;;;;14.44;77.73;102235.03;4949011;28;20037;-53
2021/07/23 00:37:17;;;;;;;19.20;9.50;;;;;;;14.40;77.63;102240.16;4949228;28;20422;-49
2021/07/23 00:39:42;;;;;;;17.77;9.05;;;;;;;14.37;77.75;102241.00;4946594;28;20411;-53
2021/07/23 00:42:08;;;;;;;18.00;8.43;;;;;;;14.29;78.19;102242.56;4947034;28;20463;-54
2021/07/23 00:44:33;;;;;;;18.33;9.18;;;;;;;14.27;78.05;102244.28;4946124;28;20450;-50
2021/07/23 00:46:58;;;;;;;15.80;8.95;;;;;;;14.22;78.64;102243.28;4951014;28;20027;-54
2021/07/23 00:49:24;;;;;;;18.17;8.73;;;;;;;14.12;79.02;102238.72;4951117;28;20082;-50
2021/07/23 00:51:51;;;;;;;16.17;8.60;;;;;;;14.07;79.13;102237.72;4950398;28;20028;-49
2021/07/23 00:54:17;;;;;;;20.58;9.45;;;;;;;14.04;79.59;102235.03;4944115;28;20393;-51
2021/07/23 00:56:42;;;;;;;17.45;9.60;;;;;;;13.97;79.79;102239.25;4941603;28;20046;-53
2021/07/23 00:59:08;;;;;;;20.75;9.23;;;;;;;13.94;80.27;102236.59;4951100;28;20027;-49
2021/07/23 01:01:35;;;;;;;17.10;9.18;;;;;;;13.88;80.24;102228.59;4946224;28;20352;-51
2021/07/23 01:04:02;;;;;;;16.80;9.45;;;;;;;13.81;80.43;102235.44;4948653;28;20031;-51
2021/07/23 01:06:27;;;;;;;19.83;9.68;;;;;;;13.77;81.00;102227.47;4952188;28;20097;-49
2021/07/23 01:08:53;;;;;;;16.17;8.73;;;;;;;13.76;80.90;102234.47;4951572;28;20077;-52
2021/07/23 01:11:18;;;;;;;16.67;8.45;;;;;;;13.75;81.17;102227.44;4951581;28;20773;-49
2021/07/23 01:13:44;;;;;;;18.63;9.95;;;;;;;13.77;81.49;102230.09;4965348;28;20057;-49
2021/07/23 01:16:10;;;;;;;20.58;9.68;;;;;;;13.79;81.57;102231.00;4953459;28;20035;-53
2021/07/23 01:18:36;;;;;;;15.80;8.55;;;;;;;13.79;81.52;102233.63;4949982;28;20037;-50
2021/07/23 01:21:02;;;;;;;19.23;9.93;;;;;;;13.74;81.66;102230.91;4953907;28;20035;-50
2021/07/23 01:23:32;;;;;;;20.05;10.02;;;;;;;13.70;81.73;102228.19;4934262;28;20093;-52
2021/07/23 01:25:58;;;;;;;21.95;10.35;;;;;;;13.68;82.13;102230.78;4953858;28;20046;-55
2021/07/23 01:28:26;;;;;;;20.20;9.90;;;;;;;13.69;82.37;102223.81;4954176;28;20097;-50
2021/07/23 01:30:51;;;;;;;17.40;9.20;;;;;;;13.71;82.26;102235.22;4952655;28;20024;-49
2021/07/23 01:33:16;;;;;;;22.80;11.15;;;;;;;13.76;82.40;102231.84;4948115;28;20085;-51
2021/07/23 01:35:42;;;;;;;23.67;11.48;;;;;;;13.84;82.23;102234.63;4951904;28;20037;-49
2021/07/23 01:38:08;;;;;;;21.05;10.90;;;;;;;13.88;81.96;102236.47;4951132;28;20037;-53
2021/07/23 01:40:33;;;;;;;22.42;11.00;;;;;;;13.89;81.76;102232.09;4950962;28;20041;-51
2021/07/23 01:42:58;;;;;;;20.50;10.65;;;;;;;13.86;81.67;102235.53;4936235;28;20644;-50
2021/07/23 01:45:24;;;;;;;21.38;11.02;;;;;;;13.77;81.99;102237.97;4952139;28;20026;-52
2021/07/23 01:47:49;;;;;;;21.80;9.68;;;;;;;13.73;82.34;102241.34;4949999;28;20086;-51
2021/07/23 01:50:14;;;;;;;22.58;10.77;;;;;;;13.69;82.31;102243.03;4951531;28;20530;-50
2021/07/23 01:52:40;;;;;;;19.67;9.85;;;;;;;13.65;82.69;102240.31;4950274;28;20094;-53
2021/07/23 01:55:05;;;;;;;18.50;8.88;;;;;;;13.54;82.71;102241.81;4952017;28;20212;-49
2021/07/23 01:57:31;;;;;;;22.90;11.23;;;;;;;13.53;82.78;102232.19;4953949;28;20046;-49
2021/07/23 01:59:57;;;;;;;21.67;11.15;;;;;;;13.45;83.29;102234.63;4950946;28;20574;-53
2021/07/23 02:02:22;;;;;;;21.25;10.88;;;;;;;13.47;82.93;102224.19;4955240;28;20492;-50
2021/07/23 02:04:48;;;;;;;20.88;10.27;;;;;;;13.43;83.42;102227.56;4950266;28;20027;-51
2021/07/23 02:07:14;;;;;;;20.20;10.02;;;;;;;13.39;83.43;102232.75;4950210;28;20031;-52
2021/07/23 02:09:39;;;;;;;21.95;10.80;;;;;;;13.39;83.75;102237.97;4952267;28;20571;-51
2021/07/23 02:12:05;;;;;;;21.30;9.93;;;;;;;13.33;84.10;102231.72;4952893;28;20078;-52
2021/07/23 02:14:30;;;;;;;20.65;10.13;;;;;;;13.28;84.18;102221.13;4946881;28;20105;-51
2021/07/23 02:16:58;;;;;;;25.70;11.50;;;;;;;13.30;84.25;102224.66;4951621;28;20118;-51
2021/07/23 02:19:24;;;;;;;21.88;10.80;;;;;;;13.34;83.89;102226.50;4952646;28;20023;-49
2021/07/23 02:21:49;;;;;;;23.23;10.23;;;;;;;13.25;83.91;102228.00;4962088;28;20409;-52
2021/07/23 02:24:15;;;;;;;23.70;11.70;;;;;;;13.23;84.53;102230.63;4948678;28;20096;-51
2021/07/23 02:26:40;;;;;;;26.58;11.30;;;;;;;13.21;84.26;102236.66;4949262;28;20039;-52
2021/07/23 02:29:05;;;;;;;22.80;10.65;;;;;;;13.22;84.15;102231.47;4951974;28;20027;-50
2021/07/23 02:31:31;;;;;;;25.30;11.35;;;;;;;13.21;84.78;102219.22;4951258;28;20038;-49
2021/07/23 02:33:56;;;;;;;24.08;11.30;;;;;;;13.19;84.36;102217.38;4949639;28;20121;-49
2021/07/23 02:36:21;;;;;;;23.65;10.60;;;;;;;13.19;84.22;102225.25;4952494;28;20318;-52
2021/07/23 02:38:47;;;;;;;25.98;11.98;;;;;;;13.14;84.36;102216.41;4947892;28;20031;-53
2021/07/23 02:41:12;;;;;;;28.05;12.30;;;;;;;13.10;84.74;102214.53;4952851;28;20027;-53
2021/07/23 02:43:38;;;;;;;23.95;11.30;;;;;;;13.08;84.90;102219.72;4951331;28;20537;-50
2021/07/23 02:46:03;;;;;;;26.98;12.00;;;;;;;13.05;84.64;102222.28;4951161;28;20043;-51
2021/07/23 02:48:28;;;;;;;25.27;12.70;;;;;;;13.07;84.90;102224.91;4952426;28;20035;-51
2021/07/23 02:50:54;;;;;;;24.27;11.82;;;;;;;13.04;84.78;102219.63;4950325;28;20506;-49
2021/07/23 02:53:20;;;;;;;28.60;11.77;;;;;;;13.01;84.78;102212.56;4953486;28;20410;-53
2021/07/23 02:55:49;;;;;;;29.83;13.63;;;;;;;13.00;85.22;102214.28;4947694;28;20483;-49
2021/07/23 02:58:15;;;;;;;28.90;12.80;;;;;;;12.97;85.21;102214.22;4954059;28;20141;-49
2021/07/23 03:00:40;;;;;;;28.30;12.25;;;;;;;12.95;85.10;102205.44;4964368;28;20466;-51
2021/07/23 03:03:05;;;;;;;29.35;13.68;;;;;;;12.92;85.35;102204.50;4949638;28;20039;-49
2021/07/23 03:05:31;;;;;;;26.08;13.13;;;;;;;12.90;85.28;102207.06;4948805;28;20039;-48
2021/07/23 03:07:56;;;;;;;31.35;13.15;;;;;;;12.86;85.30;102202.63;4966833;28;20031;-47
2021/07/23 03:10:22;;;;;;;29.25;12.55;;;;;;;12.84;85.16;102191.22;4948861;28;20169;-53
2021/07/23 03:12:48;;;;;;;29.67;13.45;;;;;;;12.81;85.08;102196.34;4948435;28;20069;-47
2021/07/23 03:15:13;;;;;;;28.48;13.57;;;;;;;12.81;85.31;102192.84;4948996;28;20483;-50
2021/07/23 03:17:39;;;;;;;29.27;13.10;;;;;;;12.79;85.37;102184.97;4949275;28;20235;-48
2021/07/23 03:20:05;;;;;;;30.33;13.65;;;;;;;12.78;85.58;102182.31;4951131;28;21284;-50
2021/07/23 03:22:30;;;;;;;26.50;12.43;;;;;;;12.78;85.38;102184.94;4949578;28;20019;-49
2021/07/23 03:24:56;;;;;;;29.55;14.18;;;;;;;12.75;85.10;102185.72;4952256;28;20043;-49
2021/07/23 03:27:22;;;;;;;28.00;12.80;;;;;;;12.73;85.30;102181.31;4952602;28;20031;-48
2021/07/23 03:29:47;;;;;;;32.78;12.80;;;;;;;12.72;85.60;102179.53;4950126;28;20062;-51
2021/07/23 03:32:13;;;;;;;36.55;14.10;;;;;;;12.66;85.80;102175.03;4953618;28;20072;-48
2021/07/23 03:34:38;;;;;;;32.92;14.90;;;;;;;12.64;86.14;102179.34;4944439;28;20022;-51
2021/07/23 03:37:04;;;;;;;35.63;15.63;;;;;;;12.62;86.20;102177.56;4949875;28;20402;-50
2021/07/23 03:39:29;;;;;;;37.92;15.77;;;;;;;12.62;86.63;102174.94;4944774;28;20027;-49
2021/07/23 03:41:54;;;;;;;34.55;13.77;;;;;;;12.63;86.19;102172.34;4948982;28;20555;-49
2021/07/23 03:44:20;;;;;;;33.03;14.93;;;;;;;12.66;86.20;102169.81;4951273;28;20031;-50
2021/07/23 03:46:45;;;;;;;33.30;14.85;;;;;;;12.69;86.38;102167.25;4950300;28;20315;-53
2021/07/23 03:49:10;;;;;;;37.70;14.95;;;;;;;12.76;86.66;102170.91;4951885;28;20035;-52
2021/07/23 03:51:36;;;;;;;35.55;15.15;;;;;;;12.84;86.75;102178.13;4950613;28;20037;-52
2021/07/23 03:54:01;;;;;;;39.17;16.20;;;;;;;12.96;86.78;102167.94;4950217;28;20306;-49
2021/07/23 03:56:26;;;;;;;35.15;15.57;;;;;;;13.07;87.33;102170.81;4949601;28;20035;-53
2021/07/23 03:58:54;;;;;;;36.92;16.00;;;;;;;13.18;86.92;102171.97;4950487;28;20051;-49
2021/07/23 04:01:20;;;;;;;37.15;15.65;;;;;;;13.30;86.97;102168.75;4949856;28;20029;-52
2021/07/23 04:03:46;;;;;;;34.00;15.40;;;;;;;13.40;86.66;102162.91;4948510;28;20518;-53
2021/07/23 04:06:11;;;;;;;32.42;14.85;;;;;;;13.53;85.82;102164.06;4952045;28;20129;-52
2021/07/23 04:08:39;;;;;;;33.08;14.50;;;;;;;13.47;85.95;102167.44;4949145;28;20330;-50
2021/07/23 04:11:04;;;;;;;33.03;14.05;;;;;;;13.55;86.19;102167.56;4947656;28;20114;-51
2021/07/23 04:13:30;;;;;;;29.42;13.98;;;;;;;13.66;85.77;102166.94;4944763;28;20776;-49
2021/07/23 04:15:55;;;;;;;26.80;13.98;;;;;;;13.89;84.78;102169.19;4950330;28;20038;-49
2021/07/23 04:18:21;;;;;;;30.65;14.30;;;;;;;14.04;84.01;102162.50;4947831;28;20039;-54
2021/07/23 04:20:46;;;;;;;29.42;13.38;;;;;;;14.02;83.80;102165.97;4951048;28;20347;-51
2021/07/23 04:23:11;;;;;;;24.83;11.90;;;;;;;14.11;84.10;102161.78;4949662;28;20035;-53
2021/07/23 04:25:40;;;;;;;25.23;13.35;;;;;;;14.29;83.45;102168.22;4948160;28;20471;-52
2021/07/23 04:28:06;;;;;;;24.20;12.38;;;;;;;14.37;82.64;102164.00;4948857;28;20026;-50
2021/07/23 04:30:32;;;;;;;22.70;12.93;;;;;;;14.47;82.28;102168.59;4945068;28;20023;-53
2021/07/23 04:32:57;;;;;;;26.45;12.60;;;;;;;14.53;81.71;102155.56;4951468;28;20081;-50
2021/07/23 04:35:23;;;;;;;24.02;12.35;;;;;;;14.63;81.55;102154.91;4947579;28;20041;-48
2021/07/23 04:37:48;;;;;;;23.58;12.05;;;;;;;14.70;81.22;102153.25;4948918;28;20475;-52
2021/07/23 04:40:14;;;;;;;20.17;10.95;;;;;;;14.76;80.38;102146.34;4952097;28;20038;-52
2021/07/23 04:42:39;;;;;;;17.30;10.25;;;;;;;14.83;79.12;102152.56;4950742;28;20030;-51
2021/07/23 04:45:05;;;;;;;19.58;11.32;;;;;;;14.88;79.02;102156.19;4954796;28;20467;-51
2021/07/23 04:47:30;;;;;;;17.63;10.35;;;;;;;14.88;78.73;102150.94;4952109;28;20033;-53
2021/07/23 04:49:56;;;;;;;21.48;10.63;;;;;;;14.91;79.04;102146.59;4954001;28;20082;-51
2021/07/23 04:52:22;;;;;;;16.08;9.95;;;;;;;15.03;77.40;102145.91;4951832;28;20049;-52
2021/07/23 04:54:47;;;;;;;17.13;9.43;;;;;;;15.05;78.40;102144.19;4949774;28;20088;-50
2021/07/23 04:57:14;;;;;;;15.68;9.68;;;;;;;15.12;77.75;102138.19;4953583;28;20030;-53
2021/07/23 04:59:39;;;;;;;19.90;9.95;;;;;;;15.19;78.34;102147.88;4951318;28;20479;-49
2021/07/23 05:02:05;;;;;;;16.38;9.65;;;;;;;15.21;78.38;102147.91;4950981;28;20042;-49
2021/07/23 05:04:31;;;;;;;16.95;9.85;;;;;;;15.25;77.75;102147.09;4950767;28;20481;-51
2021/07/23 05:06:56;;;;;;;14.48;9.27;;;;;;;15.29;77.51;102146.31;4937508;28;20089;-51
2021/07/23 05:09:21;;;;;;;15.75;9.60;;;;;;;15.35;77.82;102141.13;4952477;28;20035;-52
2021/07/23 05:11:47;;;;;;;16.45;10.05;;;;;;;15.40;77.33;102140.31;4954410;28;20027;-53
2021/07/23 05:14:12;;;;;;;16.55;10.05;;;;;;;15.48;76.92;102144.81;4954777;28;20394;-54
2021/07/23 05:16:39;;;;;;;16.70;9.85;;;;;;;15.51;76.83;102137.84;4951643;28;20037;-50
2021/07/23 05:19:05;;;;;;;15.30;9.82;;;;;;;15.56;75.98;102141.44;4973451;28;20038;-52
2021/07/23 05:21:30;;;;;;;18.80;10.20;;;;;;;15.62;76.10;102148.50;4952193;28;20027;-50
2021/07/23 05:23:56;;;;;;;15.63;9.38;;;;;;;15.63;76.00;102140.66;4965714;28;20050;-54
2021/07/23 05:26:21;;;;;;;13.65;9.32;;;;;;;15.65;75.76;102143.31;4952699;28;20053;-53
2021/07/23 05:28:47;;;;;;;14.43;9.30;;;;;;;15.73;74.84;102145.19;4952534;28;20023;-47
2021/07/23 05:31:12;;;;;;;14.23;8.90;;;;;;;15.80;74.75;102148.75;4954924;28;20594;-50
2021/07/23 05:33:37;;;;;;;15.07;8.98;;;;;;;15.84;74.19;102145.31;4948541;28;20570;-49
2021/07/23 05:36:03;;;;;;;15.88;8.57;;;;;;;15.88;73.61;102147.09;4951281;28;20348;-50
2021/07/23 05:38:29;;;;;;;12.55;9.00;;;;;;;15.91;73.45;102141.91;4952524;28;20848;-53
2021/07/23 05:40:54;;;;;;;12.15;8.07;;;;;;;15.97;74.09;102141.09;4952706;28;20031;-49
2021/07/23 05:43:20;;;;;;;13.38;7.90;;;;;;;15.99;73.05;102140.22;4949118;28;20027;-52
2021/07/23 05:45:45;;;;;;;15.65;8.13;;;;;;;16.03;72.88;102138.53;4954375;28;20391;-52
2021/07/23 05:48:10;;;;;;;12.60;7.65;;;;;;;16.10;72.62;102141.22;4955396;28;20061;-53
2021/07/23 05:50:36;;;;;;;11.45;7.55;;;;;;;16.16;72.40;102132.53;4953133;28;20033;-49
2021/07/23 05:53:01;;;;;;;10.50;7.57;;;;;;;16.21;72.69;102131.72;4951037;28;20133;-49
2021/07/23 05:55:27;;;;;;;14.48;8.40;;;;;;;16.26;71.99;102129.13;4949233;28;20027;-48
2021/07/23 05:57:57;;;;;;;11.35;7.93;;;;;;;16.35;73.70;102130.94;4951315;28;20042;-52
2021/07/23 06:00:24;;;;;;;13.65;8.30;;;;;;;16.41;73.17;102128.34;4949824;28;20038;-49
2021/07/23 06:02:49;;;;;;;14.15;7.75;;;;;;;16.47;72.04;102126.66;4954055;28;20085;-51
2021/07/23 06:05:15;;;;;;;11.98;7.65;;;;;;;16.47;73.23;102117.88;4947495;28;20035;-52
2021/07/23 06:07:40;;;;;;;11.68;7.85;;;;;;;16.51;74.26;102117.06;4949810;28;20649;-50
2021/07/23 06:10:06;;;;;;;10.48;7.57;;;;;;;16.58;71.85;102124.16;4952038;28;20066;-52
2021/07/23 06:12:32;;;;;;;12.32;7.18;;;;;;;16.54;71.07;102125.84;4949724;28;20064;-50
2021/07/23 06:14:57;;;;;;;12.48;6.63;;;;;;;16.49;70.39;102117.03;4951513;28;20173;-49
2021/07/23 06:17:23;;;;;;;11.68;7.28;;;;;;;16.62;71.45;102118.06;4951933;28;20035;-47
2021/07/23 06:19:48;;;;;;;11.05;6.88;;;;;;;16.73;69.37;102119.03;4952642;28;20030;-49
2021/07/23 06:22:15;;;;;;;9.23;6.68;;;;;;;16.89;69.45;102112.16;4952378;28;20027;-50
2021/07/23 06:24:40;;;;;;;10.77;6.38;;;;;;;17.01;68.88;102109.59;4948285;28;20047;-53
2021/07/23 06:27:06;;;;;;;11.73;6.65;;;;;;;17.11;67.94;102116.69;4946853;28;20097;-49
2021/07/23 06:29:31;;;;;;;11.95;7.22;;;;;;;17.13;67.82;102114.06;4949628;28;20474;-48
2021/07/23 06:31:58;;;;;;;10.98;6.70;;;;;;;17.13;67.45;102116.69;4954315;28;20479;-50
2021/07/23 06:34:23;;;;;;;11.10;6.60;;;;;;;17.14;67.68;102116.69;4948269;28;20625;-49
2021/07/23 06:36:48;;;;;;;11.05;6.55;;;;;;;17.16;68.66;102122.84;4951904;28;20034;-57
2021/07/23 06:39:14;;;;;;;12.15;7.20;;;;;;;17.14;68.56;102116.69;4950384;28;20133;-52
2021/07/23 06:41:39;;;;;;;9.60;6.50;;;;;;;17.23;67.90;102115.88;4951036;28;20657;-50
2021/07/23 06:44:04;;;;;;;12.30;7.20;;;;;;;17.25;70.09;102117.66;4946482;28;20335;-49
2021/07/23 06:46:30;;;;;;;11.25;6.70;;;;;;;17.19;68.10;102108.81;4950649;28;20042;-48
2021/07/23 06:48:55;;;;;;;10.38;6.88;;;;;;;17.25;70.40;102114.13;4953031;28;20109;-48
2021/07/23 06:51:21;;;;;;;9.73;6.90;;;;;;;17.28;69.41;102114.13;4950528;28;20023;-52
2021/07/23 06:53:46;;;;;;;10.27;6.75;;;;;;;17.39;67.94;102113.31;4953342;28;20043;-50
2021/07/23 06:56:14;;;;;;;11.02;6.95;;;;;;;17.40;68.24;102114.19;4951727;28;20026;-51
2021/07/23 06:58:40;;;;;;;11.90;6.55;;;;;;;17.66;68.64;102111.72;4950358;28;20038;-49
2021/07/23 07:01:08;;;;;;;10.43;6.70;;;;;;;17.78;68.91;102123.19;4953885;28;20327;-49
2021/07/23 07:03:34;;;;;;;11.32;7.28;;;;;;;17.93;68.67;102119.72;4947528;28;20488;-51
2021/07/23 07:06:03;;;;;;;10.20;6.68;;;;;;;17.96;67.46;102116.22;4946396;28;20086;-50
2021/07/23 07:08:29;;;;;;;11.82;6.97;;;;;;;18.02;67.42;102125.03;4944296;28;20135;-54
2021/07/23 07:10:54;;;;;;;10.77;6.50;;;;;;;18.12;66.37;102129.44;4952086;28;20064;-50
2021/07/23 07:13:19;;;;;;;11.90;6.85;;;;;;;18.15;66.07;102131.22;4948568;28;20050;-52
2021/07/23 07:15:45;;;;;;;13.98;7.18;;;;;;;18.16;65.95;102138.25;4952494;28;20041;-49
2021/07/23 07:18:10;;;;;;;9.88;6.55;;;;;;;18.29;66.78;102137.41;4951444;28;20377;-52
2021/07/23 07:20:36;;;;;;;11.20;7.05;;;;;;;18.31;67.09;102127.72;4945664;28;20493;-50
2021/07/23 07:23:01;;;;;;;10.27;6.78;;;;;;;18.25;65.78;102128.59;4951477;28;20087;-48
2021/07/23 07:25:27;;;;;;;11.52;7.35;;;;;;;18.13;65.67;102133.84;4950831;28;20051;-52
2021/07/23 07:27:56;;;;;;;14.35;7.20;;;;;;;18.19;68.05;102131.22;4943825;28;20212;-53
2021/07/23 07:30:21;;;;;;;11.52;6.93;;;;;;;18.16;67.55;102133.00;4940464;28;20043;-50
2021/07/23 07:32:46;;;;;;;13.05;7.80;;;;;;;18.16;65.72;102138.25;4950448;28;20573;-49
2021/07/23 07:35:12;;;;;;;11.52;7.53;;;;;;;18.13;68.47;102136.50;4949685;28;20037;-51
2021/07/23 07:37:38;;;;;;;11.23;7.30;;;;;;;18.17;66.37;102140.91;4949861;28;20033;-51
2021/07/23 07:40:04;;;;;;;13.05;7.80;;;;;;;18.21;67.36;102141.78;4950953;28;20031;-48
2021/07/23 07:42:30;;;;;;;12.82;8.05;;;;;;;18.24;65.68;102136.50;4944937;28;20228;-52
2021/07/23 07:44:57;;;;;;;12.15;7.40;;;;;;;18.30;65.85;102133.88;4951943;28;20038;-48
2021/07/23 07:47:22;;;;;;;11.45;7.47;;;;;;;18.43;66.68;102137.41;4944611;28;20466;-50
2021/07/23 07:49:47;;;;;;;11.70;7.82;;;;;;;18.48;66.96;102138.31;4950031;28;20045;-48
2021/07/23 07:52:13;;;;;;;15.52;7.88;;;;;;;18.53;65.37;102136.56;4949243;28;20039;-49
2021/07/23 07:54:38;;;;;;;12.27;8.18;;;;;;;18.62;65.23;102137.47;4949027;28;20082;-54
2021/07/23 07:57:08;;;;;;;11.68;7.53;;;;;;;18.66;67.53;102133.09;4950430;28;20081;-49
2021/07/23 07:59:33;;;;;;;13.05;8.02;;;;;;;18.68;66.72;102131.31;4946819;28;20057;-48
2021/07/23 08:01:59;;;;;;;10.23;7.35;;;;;;;18.70;64.79;102128.66;4947756;28;20513;-48
2021/07/23 08:04:24;;;;;;;9.68;7.20;;;;;;;18.74;64.78;102126.00;4945314;28;20030;-49
2021/07/23 08:06:49;;;;;;;11.07;6.97;;;;;;;18.85;65.96;102124.25;4948194;28;20050;-51
2021/07/23 08:09:15;;;;;;;10.15;7.20;;;;;;;18.86;65.34;102125.13;4945786;28;20042;-49
2021/07/23 08:11:41;;;;;;;11.85;7.32;;;;;;;18.83;65.51;102118.09;4944784;28;20058;-49
2021/07/23 08:14:07;;;;;;;14.68;7.53;;;;;;;18.89;66.73;102123.38;4947757;28;20027;-48
2021/07/23 08:16:32;;;;;;;12.57;7.72;;;;;;;18.94;63.55;102118.97;4943879;28;20038;-51
2021/07/23 08:19:02;;;;;;;12.50;8.35;;;;;;;18.86;65.07;102133.06;4949773;28;20030;-52
2021/07/23 08:21:30;;;;;;;13.65;7.95;;;;;;;18.96;64.58;102118.97;4944216;28;20027;-49
2021/07/23 08:23:57;;;;;;;14.30;8.52;;;;;;;18.84;65.56;102129.56;4947676;28;20039;-50
2021/07/23 08:26:24;;;;;;;11.90;7.82;;;;;;;18.93;65.09;102121.59;4963700;28;20577;-51
2021/07/23 08:28:49;;;;;;;13.73;7.88;;;;;;;19.01;64.08;102114.56;4947630;28;20031;-51
2021/07/23 08:31:15;;;;;;;15.23;7.90;;;;;;;18.95;66.04;102123.38;4946829;28;20553;-50
2021/07/23 08:33:42;;;;;;;12.15;7.30;;;;;;;19.09;65.46;102125.97;4947378;28;20097;-51
2021/07/23 08:36:07;;;;;;;12.73;7.70;;;;;;;19.24;64.54;102122.44;4946064;28;20487;-48
2021/07/23 08:38:33;;;;;;;13.88;8.45;;;;;;;19.31;64.85;102119.78;4949102;28;20065;-48
2021/07/23 08:40:58;;;;;;;10.60;7.32;;;;;;;19.28;62.07;102119.75;4949616;28;20047;-52
2021/07/23 08:43:24;;;;;;;12.35;7.57;;;;;;;19.35;63.23;102116.22;4945870;28;20542;-53
2021/07/23 08:45:49;;;;;;;12.63;7.30;;;;;;;19.34;64.02;102116.22;4949680;28;20050;-50
2021/07/23 08:48:14;;;;;;;12.75;7.93;;;;;;;19.38;65.19;102107.41;4951810;28;20034;-50
2021/07/23 08:50:40;;;;;;;11.63;7.55;;;;;;;19.41;62.51;102108.25;4943135;28;20055;-50
2021/07/23 08:53:11;;;;;;;11.75;7.70;;;;;;;19.40;62.27;102108.25;4943813;28;20413;-50
2021/07/23 08:55:38;;;;;;;10.70;7.05;;;;;;;19.42;63.17;102107.38;4947370;28;20147;-51
2021/07/23 08:58:10;;;;;;;13.32;8.70;;;;;;;19.33;64.60;102110.03;4948845;28;20506;-49
2021/07/23 09:00:37;;;;;;;14.30;7.40;;;;;;;19.42;61.62;102102.09;4944548;28;20483;-51
2021/07/23 09:03:09;;;;;;;11.18;7.60;;;;;;;19.51;62.01;102093.28;4947016;28;20541;-48
2021/07/23 09:05:40;;;;;;;13.95;7.50;;;;;;;19.71;62.21;102094.06;4955569;28;20031;-50
2021/07/23 09:08:16;;;;;;;12.38;7.65;;;;;;;19.84;61.45;102087.81;4949111;28;20046;-51
2021/07/23 09:10:43;;;;;;;14.82;8.38;;;;;;;19.92;60.35;102081.63;4950069;28;20117;-50
2021/07/23 09:13:13;;;;;;;14.77;7.50;;;;;;;19.97;60.19;102080.69;4941780;28;20030;-50
2021/07/23 09:15:41;;;;;;;11.05;7.50;;;;;;;19.89;60.41;102074.56;4952279;28;20027;-53
2021/07/23 09:18:19;;;;;;;12.45;7.95;;;;;;;20.03;60.49;102082.41;4947499;28;20057;-51
2021/07/23 09:20:59;;;;;;;13.48;7.97;;;;;;;20.22;62.48;102074.34;4949396;28;20406;-53
2021/07/23 09:23:36;;;;;;;15.43;8.73;;;;;;;20.35;59.70;102069.00;4945817;28;20721;-53
2021/07/23 09:26:15;;;;;;;11.25;8.05;;;;;;;20.68;58.65;102071.34;4948947;28;20038;-50
2021/07/23 09:28:47;;;;;;;11.32;7.13;;;;;;;20.90;59.87;102064.94;4952382;28;20023;-48
2021/07/23 09:31:20;;;;;;;11.45;7.75;;;;;;;21.02;57.80;102066.59;4952538;28;20027;-52
2021/07/23 09:33:46;;;;;;;11.15;7.45;;;;;;;21.26;57.24;102071.66;4960832;28;20851;-49
2021/07/23 09:36:12;;;;;;;20.80;7.82;;;;;;;21.48;56.10;102060.75;4952868;28;20089;-51
2021/07/23 09:38:42;;;;;;;13.40;7.88;;;;;;;21.53;55.84;102061.59;4954854;28;20026;-50
2021/07/23 09:41:23;;;;;;;11.02;7.40;;;;;;;21.37;55.77;102059.13;4949932;28;20147;-49
2021/07/23 09:44:07;;;;;;;12.73;7.93;;;;;;;21.56;57.14;102054.47;4954046;28;20039;-53
2021/07/23 09:46:40;;;;;;;13.90;8.25;;;;;;;21.49;56.20;102052.78;4948632;28;20590;-49
2021/07/23 09:49:21;;;;;;;12.82;7.90;;;;;;;21.38;60.95;102057.34;4954822;28;21376;-53
2021/07/23 09:51:48;;;;;;;12.57;8.48;;;;;;;21.41;56.52;102055.53;4952614;28;20038;-52
2021/07/23 09:54:13;;;;;;;11.80;7.57;;;;;;;21.59;55.12;102057.06;4953733;28;20053;-51
2021/07/23 09:56:39;;;;;;;13.38;7.65;;;;;;;21.47;58.40;102053.72;4952829;28;20022;-50
2021/07/23 09:59:11;;;;;;;13.52;8.88;;;;;;;21.44;56.88;102057.28;4952720;28;20057;-50
2021/07/23 10:01:40;;;;;;;12.98;9.00;;;;;;;21.10;55.83;102061.22;4950573;28;20439;-49
2021/07/23 10:04:09;;;;;;;15.23;7.90;;;;;;;21.25;56.83;102061.06;4952692;28;20035;-49
2021/07/23 10:06:37;;;;;;;12.50;7.63;;;;;;;21.05;58.99;102069.19;4953755;28;20030;-51
2021/07/23 10:09:11;;;;;;;10.07;7.18;;;;;;;20.84;57.96;102069.44;4952487;28;20061;-48
2021/07/23 10:11:41;;;;;;;14.32;7.60;;;;;;;20.67;57.68;102052.81;4953475;28;20037;-48
2021/07/23 10:14:10;;;;;;;11.20;7.75;;;;;;;20.70;59.82;102060.72;4951905;28;20478;-49
2021/07/23 10:16:37;;;;;;;12.65;7.75;;;;;;;20.78;57.04;102050.94;4952241;28;20061;-49
2021/07/23 10:19:05;;;;;;;12.27;7.30;;;;;;;20.83;56.69;102054.41;4952095;28;20102;-50
2021/07/23 10:21:30;;;;;;;11.77;6.95;;;;;;;20.73;59.59;102048.34;4936997;28;20145;-52
2021/07/23 10:23:56;;;;;;;11.05;6.90;;;;;;;20.60;60.71;102044.94;4951847;28;20172;-53
2021/07/23 10:26:25;;;;;;;11.00;7.70;;;;;;;20.66;58.00;102046.63;4962809;28;20129;-48
2021/07/23 10:28:54;;;;;;;10.00;7.43;;;;;;;20.52;58.01;102035.28;4956233;28;20058;-47
2021/07/23 10:31:21;;;;;;;12.50;7.38;;;;;;;20.39;61.10;102036.28;4949152;28;20462;-50
2021/07/23 10:33:51;;;;;;;14.68;7.75;;;;;;;20.61;58.51;102045.81;4954401;28;20102;-47
2021/07/23 10:36:26;;;;;;;13.40;7.75;;;;;;;20.61;58.14;102041.34;4948772;28;20070;-51
2021/07/23 10:39:06;;;;;;;12.18;7.28;;;;;;;20.81;57.37;102035.88;4953905;28;20093;-50
2021/07/23 10:41:36;;;;;;;13.88;7.30;;;;;;;21.09;58.54;102030.28;4951855;28;20073;-48
2021/07/23 10:44:03;;;;;;;11.40;7.60;;;;;;;21.31;55.75;102027.38;4948276;28;20026;-49
2021/07/23 10:46:43;;;;;;;10.05;6.85;;;;;;;21.79;54.83;102020.50;4955699;28;20117;-48
2021/07/23 10:49:10;;;;;;;10.27;6.63;;;;;;;21.94;54.66;102011.44;4948368;28;20061;-52
2021/07/23 10:51:49;;;;;;;14.95;7.57;;;;;;;21.98;52.92;102007.88;4952289;28;20041;-49
2021/07/23 10:54:19;;;;;;;11.00;6.90;;;;;;;22.00;56.67;102000.75;4951059;28;20738;-48
2021/07/23 10:57:02;;;;;;;12.10;7.80;;;;;;;22.10;53.98;101997.06;4952079;28;20050;-50
2021/07/23 10:59:40;;;;;;;12.00;7.53;;;;;;;22.27;54.62;101986.13;4949359;28;20023;-50
2021/07/23 11:02:06;;;;;;;12.85;6.70;;;;;;;22.40;51.95;101993.00;4951373;28;20069;-49
2021/07/23 11:04:35;;;;;;;13.65;7.25;;;;;;;22.49;53.11;101976.00;4947151;28;20027;-50
2021/07/23 11:07:01;;;;;;;11.50;7.47;;;;;;;22.42;51.19;101972.59;4953856;28;20031;-50
2021/07/23 11:09:31;;;;;;;10.63;6.90;;;;;;;22.66;50.72;101971.25;4949319;28;20070;-54
2021/07/23 11:12:25;;;;;;;13.93;6.90;;;;;;;22.71;50.87;101971.16;4950897;28;20027;-50